X  Κλείσε Στοιχεία αεροπορικών μετεωρολογικών δεδομένων METAR     KDNN Dalton Municipal Airport
θερμοκρασία
88°F θερμοκρασία
72°F Σημείο δρόσου
59% Υγρασία



Ανεμος
0 MPH
0 KM/H
0 M/S
0 KTS



Ηρεμία
V
Τρέχουσες συνθήκες

Σαφή Σαφή
πίεση 1014.22 (hPa) - 29.95 (inHg)
Ορατότητα 10 (μίλι) - 16.1 (km)
Aεροδρόμιο
Κωδικός αεροδρομίου KDNN

Τοποθεσία: Dalton Municipal Airport
Απόσταση: 34 (mi)

Metar:
KDNN 160015Z AUTO 00000KT 10SM CLR 31/22 A2995 RMK AO2 T03130220

ώρα: 06-15-2024 20:15 EDT